createdAt,value
2019-03-04T00:00:47.231Z,33.90
2019-03-04T00:03:57.814Z,25.57
2019-03-04T00:07:05.227Z,32.27
2019-03-04T00:10:12.692Z,36.57
2019-03-04T00:13:20.106Z,18.03
2019-03-04T00:16:27.621Z,23.83
2019-03-04T00:19:35.643Z,15.53
2019-03-04T00:22:44.303Z,21.17
2019-03-04T00:25:51.883Z,20.33
2019-03-04T00:28:59.447Z,20.83
2019-03-04T00:32:06.927Z,26.03
2019-03-04T00:35:14.327Z,18.93
2019-03-04T00:38:21.775Z,15.80
2019-03-04T00:41:29.249Z,18.40
2019-03-04T00:44:36.763Z,17.07
2019-03-04T00:47:44.234Z,22.87
2019-03-04T00:50:51.677Z,20.27
2019-03-04T00:53:59.609Z,28.80
2019-03-04T00:57:07.058Z,22.23
2019-03-04T01:00:17.928Z,25.07
2019-03-04T01:03:25.377Z,35.60
2019-03-04T01:06:32.836Z,36.00
2019-03-04T01:09:40.281Z,43.47
2019-03-04T01:12:47.703Z,27.80
2019-03-04T01:15:55.188Z,34.20
2019-03-04T01:19:02.627Z,45.53
2019-03-04T01:22:10.067Z,46.40
2019-03-04T01:25:18.587Z,28.27
2019-03-04T01:28:27.001Z,20.07
2019-03-04T01:31:34.437Z,18.63
2019-03-04T01:34:41.889Z,19.20
2019-03-04T01:37:49.285Z,16.83
2019-03-04T01:40:56.746Z,20.30
2019-03-04T01:44:04.307Z,14.37
2019-03-04T01:47:11.937Z,17.23
2019-03-04T01:50:19.647Z,19.03
2019-03-04T01:53:27.207Z,21.80
2019-03-04T01:56:34.774Z,16.07
2019-03-04T01:59:42.231Z,21.83
2019-03-04T02:02:49.719Z,17.70
2019-03-04T02:05:57.242Z,20.93
2019-03-04T02:09:05.859Z,23.53
2019-03-04T02:12:15.066Z,24.63
2019-03-04T02:15:22.577Z,28.00
2019-03-04T02:18:30.051Z,23.50
2019-03-04T02:21:37.659Z,27.23
2019-03-04T02:24:45.097Z,26.97
2019-03-04T02:27:54.821Z,21.83
2019-03-04T02:31:02.277Z,22.80
2019-03-04T02:34:09.713Z,18.73
2019-03-04T02:37:17.241Z,20.83
2019-03-04T02:40:24.641Z,28.27
2019-03-04T02:43:32.082Z,21.30
2019-03-04T02:46:39.523Z,17.87
2019-03-04T02:49:47.015Z,21.10
2019-03-04T02:52:54.512Z,15.23
2019-03-04T02:56:01.986Z,21.27
2019-03-04T02:59:09.411Z,25.67
2019-03-04T03:02:17.002Z,14.97
2019-03-04T03:05:24.450Z,21.07
2019-03-04T03:08:32.306Z,19.10
2019-03-04T03:11:40.233Z,24.70
2019-03-04T03:14:47.682Z,16.57
2019-03-04T03:17:55.271Z,18.87
2019-03-04T03:21:02.727Z,25.30
2019-03-04T03:24:10.146Z,23.90
2019-03-04T03:27:17.611Z,24.90
2019-03-04T03:30:25.085Z,26.43
2019-03-04T03:33:32.482Z,19.20
2019-03-04T03:36:39.905Z,17.70
2019-03-04T03:39:47.321Z,15.30
2019-03-04T03:42:54.759Z,12.90
2019-03-04T03:46:03.245Z,12.60
2019-03-04T03:49:10.642Z,12.80
2019-03-04T03:52:18.095Z,15.20
2019-03-04T03:55:25.519Z,14.40
2019-03-04T03:58:32.930Z,12.63
2019-03-04T04:01:40.389Z,7.40
2019-03-04T04:04:47.907Z,8.73
2019-03-04T04:07:55.367Z,14.30
2019-03-04T04:11:03.944Z,10.27
2019-03-04T04:14:11.525Z,13.50
2019-03-04T04:17:18.939Z,10.20
2019-03-04T04:20:26.349Z,9.67
2019-03-04T04:23:33.818Z,8.60
2019-03-04T04:26:41.202Z,9.37
2019-03-04T04:29:48.664Z,12.00
2019-03-04T04:32:56.098Z,11.53
2019-03-04T04:36:03.558Z,11.53
2019-03-04T04:39:10.956Z,18.53
2019-03-04T04:42:18.474Z,24.60
2019-03-04T04:45:26.011Z,17.80
2019-03-04T04:48:33.462Z,18.17
2019-03-04T04:51:40.972Z,12.57
2019-03-04T04:54:48.414Z,15.57
2019-03-04T04:57:55.863Z,14.80
2019-03-04T05:01:03.416Z,13.23
2019-03-04T05:04:10.971Z,14.97
2019-03-04T05:07:18.566Z,20.00
2019-03-04T05:10:26.118Z,18.87
2019-03-04T05:13:33.565Z,11.57
2019-03-04T05:16:40.987Z,17.10
2019-03-04T05:19:48.527Z,10.60
2019-03-04T05:22:56.944Z,12.87
2019-03-04T05:26:04.469Z,22.83
2019-03-04T05:29:11.992Z,20.80
2019-03-04T05:32:19.463Z,23.33
2019-03-04T05:35:26.932Z,27.57
2019-03-04T05:38:34.431Z,19.40
2019-03-04T05:41:41.947Z,20.37
2019-03-04T05:44:49.864Z,18.03
2019-03-04T05:47:57.305Z,20.93
2019-03-04T05:51:04.831Z,31.13
2019-03-04T05:54:12.692Z,32.27
2019-03-04T05:57:20.146Z,24.07
2019-03-04T06:00:29.022Z,30.23
2019-03-04T06:03:36.488Z,30.20
2019-03-04T06:06:53.046Z,28.57
2019-03-04T06:10:00.517Z,34.80
2019-03-04T06:13:09.234Z,31.13
2019-03-04T06:16:16.702Z,24.40
2019-03-04T06:19:24.271Z,25.53
2019-03-04T06:22:31.758Z,35.13
2019-03-04T06:25:39.302Z,32.80
2019-03-04T06:28:46.821Z,36.13
2019-03-04T06:31:54.900Z,36.50
2019-03-04T06:35:02.498Z,44.93
2019-03-04T06:38:10.000Z,51.50
2019-03-04T06:41:18.508Z,32.80
2019-03-04T06:44:26.144Z,26.30
2019-03-04T06:47:33.645Z,28.80
2019-03-04T06:50:54.800Z,45.30
2019-03-04T06:54:50.931Z,40.00
2019-03-04T06:57:58.395Z,42.17
2019-03-04T07:01:12.747Z,24.63
2019-03-04T07:04:35.916Z,24.20
2019-03-04T07:07:43.434Z,19.23
2019-03-04T07:10:50.979Z,17.50
2019-03-04T07:13:58.410Z,12.83
2019-03-04T07:17:05.962Z,20.30
2019-03-04T07:20:14.232Z,22.87
2019-03-04T07:23:21.771Z,22.53
2019-03-04T07:26:29.304Z,24.27
2019-03-04T07:29:36.786Z,19.33
2019-03-04T07:32:44.621Z,22.20
2019-03-04T07:35:52.113Z,25.20
2019-03-04T07:39:06.022Z,24.30
2019-03-04T07:42:14.873Z,22.60
2019-03-04T07:45:23.930Z,18.77
2019-03-04T07:48:31.449Z,17.50
2019-03-04T07:51:39.030Z,19.63
2019-03-04T07:54:46.468Z,21.97
2019-03-04T07:57:53.933Z,14.13
2019-03-04T08:01:01.389Z,16.77
2019-03-04T08:04:08.857Z,17.10
2019-03-04T08:07:49.166Z,15.33
2019-03-04T08:11:47.680Z,17.70
2019-03-04T08:14:55.169Z,18.53
2019-03-04T08:18:02.835Z,20.90
2019-03-04T08:21:10.385Z,19.93
2019-03-04T08:24:17.809Z,21.37
2019-03-04T08:27:25.300Z,37.23
2019-03-04T08:30:32.823Z,23.80
2019-03-04T08:33:40.352Z,27.50
2019-03-04T08:36:47.830Z,33.60
2019-03-04T08:39:55.304Z,22.53
2019-03-04T08:43:02.824Z,25.47
2019-03-04T08:46:10.344Z,36.87
2019-03-04T08:49:17.893Z,34.17
2019-03-04T08:52:25.460Z,31.30
2019-03-04T08:55:32.928Z,11.90
2019-03-04T08:58:40.469Z,18.13
2019-03-04T09:01:47.937Z,11.67
2019-03-04T09:04:56.635Z,12.20
2019-03-04T09:08:04.138Z,12.80
2019-03-04T09:11:11.763Z,15.10
2019-03-04T09:14:19.314Z,13.33
2019-03-04T09:17:26.804Z,8.60
2019-03-04T09:20:36.126Z,10.00
2019-03-04T09:23:43.658Z,19.13
2019-03-04T09:26:51.418Z,16.03
2019-03-04T09:29:58.924Z,11.63
2019-03-04T09:33:06.559Z,13.73
2019-03-04T09:36:14.071Z,10.87
2019-03-04T09:39:21.640Z,10.33
2019-03-04T09:42:29.563Z,10.00
2019-03-04T09:45:39.217Z,13.50
2019-03-04T09:48:47.888Z,16.17
2019-03-04T09:51:55.450Z,18.77
2019-03-04T09:55:02.909Z,8.97
2019-03-04T09:58:10.481Z,8.37
2019-03-04T10:01:27.632Z,12.10
2019-03-04T10:04:57.629Z,11.30
2019-03-04T10:08:48.718Z,6.30
2019-03-04T10:12:34.877Z,10.80
2019-03-04T10:16:06.919Z,3.53
2019-03-04T10:20:03.365Z,7.17
2019-03-04T10:23:46.214Z,11.43
2019-03-04T10:27:25.262Z,14.87
2019-03-04T10:30:49.059Z,7.53
2019-03-04T10:34:35.494Z,8.00
2019-03-04T10:38:22.182Z,8.63
2019-03-04T10:41:53.923Z,11.73
2019-03-04T10:45:18.705Z,12.90
2019-03-04T10:48:26.379Z,7.80
2019-03-04T10:51:33.988Z,6.90
2019-03-04T10:54:41.498Z,5.37
2019-03-04T10:57:48.991Z,8.63
2019-03-04T11:00:56.451Z,6.80
2019-03-04T11:04:04.088Z,10.03
2019-03-04T11:07:11.631Z,6.37
2019-03-04T11:10:19.150Z,9.10
2019-03-04T11:13:26.725Z,11.40
2019-03-04T11:16:34.633Z,7.03
2019-03-04T11:19:42.206Z,14.23
2019-03-04T11:22:49.724Z,9.93
2019-03-04T11:25:57.268Z,3.87
2019-03-04T11:29:05.901Z,8.17
2019-03-04T11:32:13.332Z,8.20
2019-03-04T11:35:20.780Z,7.77
2019-03-04T11:38:46.405Z,9.37
2019-03-04T11:41:53.933Z,8.50
2019-03-04T11:45:01.376Z,5.40
2019-03-04T11:48:09.076Z,11.00
2019-03-04T11:51:16.599Z,8.40
2019-03-04T11:54:24.036Z,17.70
2019-03-04T11:57:31.612Z,9.67
2019-03-04T12:00:47.051Z,10.63
2019-03-04T12:03:55.109Z,10.73
2019-03-04T12:07:02.673Z,6.80
2019-03-04T12:10:12.636Z,8.27
2019-03-04T12:13:20.271Z,12.13
2019-03-04T12:16:29.419Z,9.80
2019-03-04T12:19:37.052Z,11.40
2019-03-04T12:22:44.754Z,9.07
2019-03-04T12:25:52.312Z,6.63
2019-03-04T12:28:59.773Z,10.27
2019-03-04T12:32:10.670Z,10.43
2019-03-04T12:35:18.659Z,6.73
2019-03-04T12:38:26.171Z,11.47
2019-03-04T12:41:34.799Z,7.77
2019-03-04T12:51:33.650Z,15.27
2019-03-04T12:54:41.295Z,15.03
2019-03-04T12:57:48.890Z,15.80
2019-03-04T13:00:57.989Z,25.73
2019-03-04T13:04:05.519Z,14.63
2019-03-04T13:07:13.007Z,24.40
2019-03-04T13:10:20.760Z,12.30
2019-03-04T13:13:28.321Z,12.80
2019-03-04T13:16:36.008Z,17.53
2019-03-04T13:19:43.606Z,20.20
2019-03-04T13:22:51.082Z,25.47
2019-03-04T13:25:58.552Z,36.07
2019-03-04T13:29:06.331Z,39.57
2019-03-04T13:32:13.880Z,23.40
2019-03-04T13:35:24.836Z,13.73
2019-03-04T13:38:31.715Z,22.10
2019-03-04T13:41:39.267Z,23.63
2019-03-04T13:44:46.763Z,25.40
2019-03-04T13:47:54.624Z,21.90
2019-03-04T13:51:03.350Z,38.67
2019-03-04T13:54:10.785Z,30.33
2019-03-04T13:57:18.332Z,22.90
2019-03-04T14:00:25.831Z,39.57
2019-03-04T14:03:33.371Z,50.93
2019-03-04T14:06:40.857Z,39.80
2019-03-04T14:09:48.419Z,31.37
2019-03-04T14:12:55.920Z,36.60
2019-03-04T14:16:04.027Z,19.67
2019-03-04T14:19:11.477Z,28.40
2019-03-04T14:22:19.093Z,31.37
2019-03-04T14:25:26.567Z,35.47
2019-03-04T14:28:34.121Z,33.80
2019-03-04T14:31:41.565Z,32.13
2019-03-04T14:34:49.085Z,48.07
2019-03-04T14:37:56.726Z,74.97
2019-03-04T14:41:04.536Z,68.30
2019-03-04T14:44:12.155Z,142.97
2019-03-04T14:47:19.690Z,63.53
2019-03-04T14:50:28.612Z,50.60
2019-03-04T14:53:36.291Z,49.80
2019-03-04T14:56:43.858Z,44.67
2019-03-04T14:59:51.479Z,35.27
2019-03-04T15:02:59.055Z,48.73
2019-03-04T15:06:07.362Z,57.07
2019-03-04T15:09:15.861Z,49.83
2019-03-04T15:12:23.415Z,81.17
2019-03-04T15:15:31.569Z,65.33
2019-03-04T15:18:39.287Z,47.00
2019-03-04T15:21:49.105Z,34.20
2019-03-04T15:24:56.044Z,29.03
2019-03-04T15:28:18.924Z,28.67
2019-03-04T15:31:26.888Z,24.00
2019-03-04T15:34:34.480Z,22.43
2019-03-04T15:37:42.153Z,22.53
2019-03-04T15:40:49.800Z,15.50
2019-03-04T15:43:57.363Z,22.67
2019-03-04T15:47:04.986Z,25.27
2019-03-04T15:50:12.931Z,16.93
2019-03-04T15:53:20.446Z,32.23
2019-03-04T15:56:28.927Z,34.30
2019-03-04T15:59:36.551Z,38.20
2019-03-04T16:02:44.208Z,41.37
2019-03-04T16:05:51.801Z,53.70
2019-03-04T16:08:59.355Z,85.83
2019-03-04T16:12:08.433Z,73.23
2019-03-04T16:15:17.167Z,58.33
2019-03-04T16:18:24.827Z,68.23
2019-03-04T16:21:32.454Z,55.00
2019-03-04T16:24:40.069Z,65.67
2019-03-04T16:27:47.720Z,63.53
2019-03-04T16:30:55.250Z,61.93
2019-03-04T16:34:02.946Z,51.67
2019-03-04T16:37:10.759Z,50.73
2019-03-04T16:40:18.556Z,34.00
2019-03-04T16:43:26.385Z,39.93
2019-03-04T16:46:34.415Z,45.97
2019-03-04T16:49:42.192Z,39.07
2019-03-04T16:52:50.699Z,33.00
2019-03-04T16:55:58.281Z,48.00
2019-03-04T16:59:06.229Z,40.90
2019-03-04T17:02:14.224Z,46.50
2019-03-04T17:05:22.283Z,44.33
2019-03-04T17:08:29.942Z,70.63
2019-03-04T17:11:37.898Z,51.57
2019-03-04T17:14:45.595Z,58.20
2019-03-04T17:17:53.101Z,52.73
2019-03-04T17:21:00.621Z,44.20
2019-03-04T17:24:08.727Z,51.13
2019-03-04T17:27:16.436Z,53.00
2019-03-04T17:30:24.007Z,57.97
2019-03-04T17:33:31.492Z,63.57
2019-03-04T17:36:40.095Z,53.53
2019-03-04T17:39:47.667Z,61.37
2019-03-04T17:42:55.331Z,58.90
2019-03-04T17:46:02.975Z,55.20
2019-03-04T17:49:10.582Z,46.50
2019-03-04T17:52:18.157Z,59.60
2019-03-04T17:55:25.761Z,62.07
2019-03-04T17:58:33.427Z,47.78
2019-03-04T18:01:42.082Z,43.63
2019-03-04T18:04:51.433Z,41.13
2019-03-04T18:08:00.072Z,41.30
2019-03-04T18:11:07.665Z,51.87
2019-03-04T18:14:15.219Z,37.30
2019-03-04T18:17:22.856Z,39.40
2019-03-04T18:20:34.603Z,36.40
2019-03-04T18:23:42.142Z,22.63
2019-03-04T18:27:17.339Z,18.10
2019-03-04T18:30:35.588Z,16.80
2019-03-04T18:34:32.141Z,13.27
2019-03-04T18:38:24.799Z,16.70
2019-03-04T18:42:11.949Z,13.40
2019-03-04T18:46:23.088Z,17.43
2019-03-04T18:49:30.690Z,13.07
2019-03-04T18:52:38.254Z,9.07
2019-03-04T18:55:45.976Z,13.93
2019-03-04T18:58:53.678Z,14.50
2019-03-04T19:02:01.316Z,37.07
2019-03-04T19:05:09.460Z,70.67
2019-03-04T19:08:17.181Z,26.20
2019-03-04T19:11:24.816Z,16.87
2019-03-04T19:14:32.559Z,19.50
2019-03-04T19:17:40.204Z,12.97
2019-03-04T19:20:47.850Z,16.90
2019-03-04T19:23:55.508Z,24.77
2019-03-04T19:27:03.093Z,27.40
2019-03-04T19:30:11.061Z,47.20
2019-03-04T19:33:18.855Z,25.90
2019-03-04T19:36:26.520Z,29.27
2019-03-04T19:39:34.329Z,16.27
2019-03-04T19:42:41.885Z,28.30
2019-03-04T19:45:50.292Z,11.40
2019-03-04T19:48:57.942Z,17.27
2019-03-04T19:52:05.499Z,14.20
2019-03-04T19:55:13.645Z,12.03
2019-03-04T19:58:21.312Z,27.23
2019-03-04T20:01:28.935Z,21.67
2019-03-04T20:04:37.196Z,20.40
2019-03-04T20:07:45.851Z,13.10
2019-03-04T20:10:53.420Z,9.27
2019-03-04T20:14:00.921Z,25.57
2019-03-04T20:17:08.585Z,7.57
2019-03-04T20:20:16.285Z,32.27
2019-03-04T20:23:24.243Z,16.47
2019-03-04T20:26:31.859Z,17.00
2019-03-04T20:29:39.479Z,20.33
2019-03-04T20:32:48.816Z,20.10
2019-03-04T20:35:56.414Z,32.57
2019-03-04T20:39:05.452Z,41.93
2019-03-04T20:42:15.130Z,37.27
2019-03-04T20:45:30.292Z,31.63
2019-03-04T20:48:37.792Z,37.33
2019-03-04T20:51:45.256Z,34.00
2019-03-04T20:54:52.829Z,36.93
2019-03-04T20:58:00.478Z,33.17
2019-03-04T21:01:08.018Z,39.17
2019-03-04T21:04:15.654Z,22.20
2019-03-04T21:07:23.349Z,26.97
2019-03-04T21:10:31.009Z,28.77
2019-03-04T21:13:38.575Z,26.67
2019-03-04T21:16:46.178Z,27.03
2019-03-04T21:19:53.933Z,27.23
2019-03-04T21:23:01.512Z,20.10
2019-03-04T21:26:27.250Z,27.20
2019-03-04T21:30:18.874Z,14.33
2019-03-04T21:34:03.191Z,31.10
2019-03-04T21:37:30.990Z,26.40
2019-03-04T21:40:51.297Z,28.87
2019-03-04T21:44:07.974Z,39.80
2019-03-04T21:47:41.129Z,46.67
2019-03-04T21:51:38.146Z,56.83
2019-03-04T21:54:41.922Z,65.73
2019-03-04T21:57:55.847Z,52.97
2019-03-04T22:01:09.624Z,49.60
2019-03-04T22:04:17.167Z,41.60
2019-03-04T22:07:25.070Z,51.03
2019-03-04T22:10:33.291Z,33.93
2019-03-04T22:13:40.989Z,38.40
2019-03-04T22:16:48.848Z,40.87
2019-03-04T22:19:56.942Z,40.27
2019-03-04T22:23:04.498Z,45.20
2019-03-04T22:26:12.055Z,31.10
2019-03-04T22:29:19.582Z,33.67
2019-03-04T22:32:27.139Z,26.93
2019-03-04T22:35:34.765Z,35.13
2019-03-04T22:38:42.290Z,32.93
2019-03-04T22:41:49.903Z,40.53
2019-03-04T22:44:57.530Z,39.07
2019-03-04T22:48:05.052Z,30.80
2019-03-04T22:51:12.706Z,33.00
2019-03-04T22:54:20.285Z,23.60
2019-03-04T22:57:27.900Z,35.87
2019-03-04T23:01:26.676Z,39.03
2019-03-04T23:05:05.560Z,44.50
2019-03-04T23:08:14.550Z,37.13
2019-03-04T23:11:25.783Z,25.50
2019-03-04T23:14:33.382Z,28.90
2019-03-04T23:17:40.866Z,23.50
2019-03-04T23:20:48.431Z,26.37
2019-03-04T23:23:56.018Z,22.13
2019-03-04T23:27:03.593Z,26.10
2019-03-04T23:30:15.402Z,20.87
2019-03-04T23:33:23.058Z,14.13
2019-03-04T23:36:31.549Z,15.90
2019-03-04T23:39:40.727Z,16.33
2019-03-04T23:42:48.298Z,13.30
2019-03-04T23:45:55.838Z,13.60
2019-03-04T23:49:03.334Z,16.10
2019-03-04T23:52:10.845Z,14.23
2019-03-04T23:55:18.418Z,17.10
2019-03-04T23:58:25.952Z,12.47
